Time;durP1;ratioP1;P1;durP2;ratioP2;P2;SDS_P1;SDS_P2;PMS_P1;PMS_P2;Temp;Humidity;BMP_temperature;BMP_pressure;BME280_temperature;BME280_humidity;BME280_pressure;Samples;Min_cycle;Max_cycle;Signal;HPM_P1;HPM_P2
2021/10/09 15:18:47;;;;;;;;;;;;;;;;;;5021397;28;20069;-87
2021/10/09 15:21:15;;;;;;;32.45;13.48;;;;;;;;;;4916399;28;19926;-87
2021/10/09 15:23:41;;;;;;;26.20;12.38;;;;;;;;;;5006283;28;20423;-88
2021/10/09 15:26:06;;;;;;;;;;;;;;;;;;5013348;28;20081;-90
2021/10/09 15:28:33;;;;;;;30.73;12.35;;;;;;;;;;5018211;28;19932;-87
2021/10/09 15:31:18;;;;;;;26.50;12.45;;;;;;;;;;5028778;28;20443;-86
2021/10/09 15:33:44;;;;;;;26.58;13.30;;;;;;;;;;5022703;28;20543;-83
2021/10/09 15:36:11;;;;;;;30.60;12.75;;;;;;;;;;5020078;28;20034;-85
2021/10/09 15:38:36;;;;;;;;;;;;;;;;;;5017320;28;20104;-84
2021/10/09 15:41:02;;;;;;;27.08;13.20;;;;;;;;;;4925110;28;26196;-88
2021/10/09 15:43:27;;;;;;;;;;;;;;;;;;5036917;28;20017;-85
2021/10/09 15:45:53;;;;;;;36.03;12.93;;;;;;;;;;5038269;28;19956;-83
2021/10/09 15:48:19;;;;;;;32.33;12.05;;;;;;;;;;5022708;28;20064;-84
2021/10/09 15:50:49;;;;;;;34.08;12.15;;;;;;;;;;5027336;28;20034;-83
2021/10/09 15:56:07;;;;;;;25.38;12.80;;;;;;;;;;4203103;26;20077;-83
2021/10/09 15:58:33;;;;;;;;;;;;;;;;;;5029590;28;20033;-82
2021/10/09 16:01:02;;;;;;;26.30;11.88;;;;;;;;;;5030437;28;19963;-82
2021/10/09 16:03:31;;;;;;;34.95;11.90;;;;;;;;;;5039508;28;20041;-82
2021/10/09 16:05:58;;;;;;;23.92;12.35;;;;;;;;;;5033832;28;20105;-83
2021/10/09 16:08:24;;;;;;;41.78;12.80;;;;;;;;;;5032632;28;20128;-83
2021/10/09 16:10:50;;;;;;;;;;;;;;;;;;5024748;28;20030;-85
2021/10/09 16:13:22;;;;;;;38.55;14.05;;;;;;;;;;5019861;28;19917;-85
2021/10/09 16:15:52;;;;;;;31.35;14.02;;;;;;;;;;5016274;28;20041;-83
2021/10/09 16:18:18;;;;;;;37.05;16.30;;;;;;;;;;5033600;28;20026;-85
2021/10/09 16:20:44;;;;;;;40.45;19.00;;;;;;;;;;5019707;28;20399;-83
2021/10/09 16:23:09;;;;;;;;;;;;;;;;;;5020368;28;20060;-86
2021/10/09 16:25:35;;;;;;;45.47;18.33;;;;;;;;;;5020824;28;19909;-86
2021/10/09 16:28:01;;;;;;;44.88;20.15;;;;;;;;;;5018587;28;20045;-85
2021/10/09 16:30:26;;;;;;;;;;;;;;;;;;5020437;28;20451;-85
2021/10/09 16:32:52;;;;;;;41.78;19.73;;;;;;;;;;5017179;28;19917;-85
2021/10/09 16:35:18;;;;;;;43.65;20.33;;;;;;;;;;5022328;28;20029;-86
2021/10/09 16:37:43;;;;;;;;;;;;;;;;;;5019410;28;20057;-84
2021/10/09 16:40:09;;;;;;;37.65;20.55;;;;;;;;;;5017037;28;19916;-83
2021/10/09 16:42:35;;;;;;;41.33;19.73;;;;;;;;;;5023482;28;20029;-85
2021/10/09 16:45:00;;;;;;;44.83;20.67;;;;;;;;;;5018508;28;20334;-86
2021/10/09 16:47:26;;;;;;;;;;;;;;;;;;5019727;28;20022;-87
2021/10/09 16:49:54;;;;;;;49.88;20.45;;;;;;;;;;4930073;28;19992;-84
2021/10/09 16:52:22;;;;;;;45.60;21.70;;;;;;;;;;5051524;28;20021;-84
2021/10/09 16:54:50;;;;;;;47.60;20.25;;;;;;;;;;5050202;28;20119;-79
2021/10/09 16:57:18;;;;;;;51.60;20.55;;;;;;;;;;5054874;28;20077;-85
2021/10/09 16:59:48;;;;;;;49.58;21.02;;;;;;;;;;5051202;28;20071;-84
2021/10/09 17:02:16;;;;;;;49.90;22.23;;;;;;;;;;5035792;28;20099;-84
2021/10/09 17:04:42;;;;;;;45.72;21.45;;;;;;;;;;5052006;28;20021;-83
2021/10/09 17:07:11;;;;;;;48.90;21.95;;;;;;;;;;5035370;28;20056;-85
2021/10/09 17:09:39;;;;;;;56.75;23.70;;;;;;;;;;5027895;28;20041;-84
2021/10/09 17:12:15;;;;;;;42.80;24.02;;;;;;;;;;5033976;28;20113;-86
2021/10/09 17:14:44;;;;;;;50.17;23.23;;;;;;;;;;5048642;28;20051;-82
2021/10/09 17:17:23;;;;;;;60.53;26.70;;;;;;;;;;5051689;28;20041;-84
2021/10/09 17:19:57;;;;;;;55.78;26.30;;;;;;;;;;5044209;28;20227;-85
2021/10/09 17:22:33;;;;;;;56.10;26.92;;;;;;;;;;5051999;28;20025;-86
2021/10/09 17:24:59;;;;;;;58.78;27.50;;;;;;;;;;5050382;28;20029;-85
2021/10/09 17:27:25;;;;;;;58.75;29.38;;;;;;;;;;5054363;28;20048;-84
2021/10/09 17:29:54;;;;;;;67.15;30.98;;;;;;;;;;5044510;28;20049;-85
2021/10/09 17:32:20;;;;;;;68.22;31.55;;;;;;;;;;5046415;28;20029;-88
2021/10/09 17:35:16;;;;;;;64.45;29.52;;;;;;;;;;5055583;28;20036;-84
2021/10/09 17:37:41;;;;;;;63.58;31.17;;;;;;;;;;5052036;28;20108;-84
2021/10/09 17:40:09;;;;;;;67.95;32.88;;;;;;;;;;5051515;28;20033;-85
2021/10/09 17:42:35;;;;;;;62.20;29.13;;;;;;;;;;5043750;28;20090;-84
2021/10/09 17:45:03;;;;;;;69.03;30.40;;;;;;;;;;5054296;28;20043;-84
2021/10/09 17:47:28;;;;;;;63.75;30.25;;;;;;;;;;5052386;28;20026;-86
2021/10/09 17:49:56;;;;;;;62.00;28.63;;;;;;;;;;5037728;28;20060;-82
2021/10/09 17:52:22;;;;;;;59.90;29.15;;;;;;;;;;5032717;28;20022;-86
2021/10/09 17:54:48;;;;;;;;;;;;;;;;;;5029755;28;20508;-85
2021/10/09 17:57:14;;;;;;;55.97;26.53;;;;;;;;;;5036142;28;20424;-86
2021/10/09 17:59:39;;;;;;;;;;;;;;;;;;5035872;28;20053;-88
2021/10/09 18:02:05;;;;;;;51.42;25.02;;;;;;;;;;5035644;28;19913;-89
2021/10/09 18:04:31;;;;;;;55.65;24.35;;;;;;;;;;5028992;28;20057;-84
2021/10/09 18:06:57;;;;;;;43.53;23.10;;;;;;;;;;5033145;28;20495;-87
2021/10/09 18:09:22;;;;;;;;;;;;;;;;;;5032223;28;20080;-85
2021/10/09 18:11:48;;;;;;;51.13;22.17;;;;;;;;;;5026619;28;19913;-83
2021/10/09 18:14:13;;;;;;;;;;;;;;;;;;5014728;28;20032;-83
2021/10/09 18:16:39;;;;;;;39.40;20.20;;;;;;;;;;5026804;28;19920;-83
2021/10/09 18:19:04;;;;;;;42.60;20.08;;;;;;;;;;5031555;28;20041;-83
2021/10/09 18:21:30;;;;;;;38.70;19.70;;;;;;;;;;5033079;28;20029;-83
2021/10/09 18:23:55;;;;;;;;;;;;;;;;;;5052869;28;20070;-83
2021/10/09 18:26:21;;;;;;;40.75;18.67;;;;;;;;;;5033799;28;19913;-83
2021/10/09 18:28:47;;;;;;;;;;;;;;;;;;5033410;28;20138;-83
2021/10/09 18:31:15;;;;;;;30.33;15.82;;;;;;;;;;5034866;28;20386;-84
2021/10/09 18:33:41;;;;;;;41.22;16.48;;;;;;;;;;5033783;28;20380;-84
2021/10/09 18:36:06;;;;;;;36.67;16.65;;;;;;;;;;5033049;28;20032;-83
2021/10/09 18:38:32;;;;;;;35.05;15.73;;;;;;;;;;5033563;28;20040;-83
2021/10/09 18:40:58;;;;;;;;;;;;;;;;;;5034178;28;20399;-84
2021/10/09 18:43:25;;;;;;;35.90;16.23;;;;;;;;;;5034863;28;19909;-82
2021/10/09 18:45:50;;;;;;;35.83;16.20;;;;;;;;;;5034240;28;20171;-84
2021/10/09 18:48:16;;;;;;;35.63;15.68;;;;;;;;;;5029472;28;20512;-83
2021/10/09 18:50:41;;;;;;;42.08;16.55;;;;;;;;;;5021111;28;20116;-83
2021/10/09 18:53:07;;;;;;;34.17;15.85;;;;;;;;;;5034078;28;20037;-83
2021/10/09 18:55:32;;;;;;;;;;;;;;;;;;5032081;28;20427;-84
2021/10/09 18:57:58;;;;;;;30.42;15.07;;;;;;;;;;5030250;28;19963;-84
2021/10/09 19:00:23;;;;;;;;;;;;;;;;;;5033592;28;20037;-83
2021/10/09 19:02:49;;;;;;;31.58;13.48;;;;;;;;;;5032293;28;19917;-84
2021/10/09 19:05:14;;;;;;;;;;;;;;;;;;5035143;28;20029;-83
2021/10/09 19:07:40;;;;;;;34.03;14.40;;;;;;;;;;5027251;28;19913;-83
2021/10/09 19:10:07;;;;;;;34.50;13.48;;;;;;;;;;5030885;28;20087;-83
2021/10/09 19:12:32;;;;;;;31.40;13.65;;;;;;;;;;5031304;28;20025;-84
2021/10/09 19:14:59;;;;;;;29.20;12.98;;;;;;;;;;5031646;28;20032;-83
2021/10/09 19:17:24;;;;;;;;;;;;;;;;;;5032501;28;20395;-83
2021/10/09 19:19:49;;;;;;;23.73;13.15;;;;;;;;;;5032060;28;19917;-84
2021/10/09 19:22:15;;;;;;;;;;;;;;;;;;5032840;28;20115;-83
2021/10/09 19:24:41;;;;;;;30.20;13.45;;;;;;;;;;5031696;28;19951;-84
2021/10/09 19:27:07;;;;;;;24.98;11.65;;;;;;;;;;5032579;28;20022;-84
2021/10/09 19:29:32;;;;;;;28.55;13.35;;;;;;;;;;5032877;28;20126;-83
2021/10/09 19:31:58;;;;;;;26.88;12.52;;;;;;;;;;5022310;28;20429;-83
2021/10/09 19:34:34;;;;;;;;;;;;;;;;;;5026237;28;20039;-82
2021/10/09 19:37:17;;;;;;;25.17;13.15;;;;;;;;;;5032353;28;21292;-83
2021/10/09 19:39:44;;;;;;;36.63;13.77;;;;;;;;;;5031100;28;20443;-84
2021/10/09 19:42:12;;;;;;;33.20;14.38;;;;;;;;;;5032034;28;20091;-84
2021/10/09 19:44:38;;;;;;;36.75;14.80;;;;;;;;;;5030540;28;20447;-83
2021/10/09 19:47:06;;;;;;;43.67;14.15;;;;;;;;;;5035812;28;20468;-84
2021/10/09 19:49:31;;;;;;;22.60;13.05;;;;;;;;;;5035741;28;20037;-83
2021/10/09 19:51:59;;;;;;;30.00;13.85;;;;;;;;;;5035544;28;20041;-83
2021/10/09 19:54:33;;;;;;;35.13;13.35;;;;;;;;;;5034620;28;20033;-84
2021/10/09 19:56:59;;;;;;;31.73;13.98;;;;;;;;;;5035087;28;20061;-83
2021/10/09 19:59:25;;;;;;;30.73;11.63;;;;;;;;;;5037413;28;20033;-83
2021/10/09 20:01:51;;;;;;;28.75;13.18;;;;;;;;;;5036171;28;20507;-84
2021/10/09 20:04:16;;;;;;;;;;;;;;;;;;5034698;28;20071;-84
2021/10/09 20:06:43;;;;;;;24.77;11.77;;;;;;;;;;5035358;28;19944;-83
2021/10/09 20:09:13;;;;;;;25.08;11.75;;;;;;;;;;5035983;28;20041;-83
2021/10/09 20:11:52;;;;;;;31.35;12.40;;;;;;;;;;5036016;28;20115;-83
2021/10/09 20:14:20;;;;;;;33.72;13.32;;;;;;;;;;5016330;28;20141;-83
2021/10/09 20:16:46;;;;;;;20.33;10.90;;;;;;;;;;5016505;28;20431;-83
2021/10/09 20:19:11;;;;;;;26.13;11.80;;;;;;;;;;5032120;28;20080;-83
2021/10/09 20:21:55;;;;;;;37.58;12.40;;;;;;;;;;5016682;28;20041;-83
2021/10/09 20:24:20;;;;;;;30.45;11.50;;;;;;;;;;5036589;28;20060;-84
2021/10/09 20:26:46;;;;;;;30.17;12.07;;;;;;;;;;5046361;28;20036;-82
2021/10/09 20:29:11;;;;;;;28.30;12.10;;;;;;;;;;5044425;28;20045;-83
2021/10/09 20:31:36;;;;;;;;;;;;;;;;;;5042109;28;20168;-83
2021/10/09 20:34:05;;;;;;;26.45;11.73;;;;;;;;;;5039481;28;19915;-84
2021/10/09 20:36:30;;;;;;;31.77;12.18;;;;;;;;;;5036774;28;20053;-84
2021/10/09 20:38:56;;;;;;;27.60;12.35;;;;;;;;;;5038858;28;20040;-83
2021/10/09 20:41:22;;;;;;;20.65;11.20;;;;;;;;;;5039046;28;20120;-83
2021/10/09 20:43:47;;;;;;;;;;;;;;;;;;5037463;28;20045;-82
2021/10/09 20:46:14;;;;;;;25.13;12.07;;;;;;;;;;5038620;28;20007;-83
2021/10/09 20:48:39;;;;;;;28.35;13.40;;;;;;;;;;5037160;28;20029;-82
2021/10/09 20:51:05;;;;;;;32.15;13.00;;;;;;;;;;5039268;28;20029;-83
2021/10/09 20:53:31;;;;;;;33.85;14.43;;;;;;;;;;5038688;28;20026;-83
2021/10/09 20:56:00;;;;;;;22.73;13.15;;;;;;;;;;5038454;28;20092;-83
2021/10/09 20:58:27;;;;;;;24.65;11.35;;;;;;;;;;5038345;28;20035;-83
2021/10/09 21:00:52;;;;;;;;;;;;;;;;;;5038699;28;20034;-84
2021/10/09 21:03:17;;;;;;;25.73;12.95;;;;;;;;;;5038359;28;19917;-84
2021/10/09 21:05:43;;;;;;;;;;;;;;;;;;5054298;28;20037;-83
2021/10/09 21:08:10;;;;;;;24.70;11.50;;;;;;;;;;5039212;28;19948;-83
2021/10/09 21:10:42;;;;;;;24.13;12.38;;;;;;;;;;5039363;28;20030;-83
2021/10/09 21:24:04;;;;;;;21.00;11.50;;;;;;;;;;5037427;28;20032;-83
2021/10/09 21:26:29;;;;;;;23.90;12.93;;;;;;;;;;5038056;28;20399;-83
2021/10/09 21:28:56;;;;;;;23.45;12.15;;;;;;;;;;5038614;28;20041;-83
2021/10/09 21:31:22;;;;;;;21.35;12.32;;;;;;;;;;5039117;28;20036;-82
2021/10/09 21:33:47;;;;;;;20.13;13.02;;;;;;;;;;5038826;28;20116;-83
2021/10/09 21:36:13;;;;;;;;;;;;;;;;;;5039057;28;20025;-84
2021/10/09 21:38:38;;;;;;;20.38;11.88;;;;;;;;;;5036416;28;19909;-84
2021/10/09 21:41:04;;;;;;;19.27;11.48;;;;;;;;;;5037321;28;20033;-84
2021/10/09 21:43:30;;;;;;;27.15;12.23;;;;;;;;;;5036459;28;20124;-84
2021/10/09 21:45:55;;;;;;;18.65;10.57;;;;;;;;;;5037191;28;20030;-84
2021/10/09 21:48:21;;;;;;;19.80;11.82;;;;;;;;;;5035650;28;20052;-83
2021/10/09 21:50:46;;;;;;;;;;;;;;;;;;5036229;28;20034;-84
2021/10/09 21:53:11;;;;;;;19.00;10.18;;;;;;;;;;5035797;28;19916;-84
2021/10/09 21:55:37;;;;;;;18.00;9.98;;;;;;;;;;5036727;28;20091;-83
2021/10/09 21:58:05;;;;;;;24.75;10.50;;;;;;;;;;5037590;28;20068;-84
2021/10/09 22:01:50;;;;;;;19.88;10.43;;;;;;;;;;5035965;28;20033;-84
2021/10/09 22:17:26;;;;;;;17.27;9.80;;;;;;;;;;5016927;28;20033;-84
2021/10/09 22:19:59;;;;;;;;;;;;;;;;;;5016764;28;20033;-83
2021/10/09 22:33:08;;;;;;;22.00;11.80;;;;;;;;;;5022323;28;20067;-85
2021/10/09 22:35:36;;;;;;;19.90;10.98;;;;;;;;;;5034061;28;20025;-84
2021/10/09 22:38:05;;;;;;;18.92;11.10;;;;;;;;;;5034955;28;20048;-84
2021/10/09 22:40:31;;;;;;;21.25;11.68;;;;;;;;;;5034950;28;20034;-84
2021/10/09 22:43:00;;;;;;;;;;;;;;;;;;5034856;28;20032;-84
2021/10/09 22:45:25;;;;;;;19.80;11.15;;;;;;;;;;5035730;28;20255;-87
2021/10/09 22:47:51;;;;;;;19.40;12.10;;;;;;;;;;5035711;28;20022;-83
2021/10/09 22:50:17;;;;;;;;;;;;;;;;;;5034257;28;20041;-84
2021/10/09 22:52:42;;;;;;;20.05;11.48;;;;;;;;;;5032445;28;19909;-83
2021/10/09 22:55:09;;;;;;;22.17;11.65;;;;;;;;;;5031987;28;20060;-83
2021/10/09 22:57:36;;;;;;;23.38;12.13;;;;;;;;;;5031841;28;20036;-84
2021/10/09 23:00:02;;;;;;;20.10;11.65;;;;;;;;;;5032382;28;20030;-83
2021/10/09 23:02:28;;;;;;;20.42;12.18;;;;;;;;;;5032365;28;20029;-83
2021/10/09 23:04:53;;;;;;;18.95;12.05;;;;;;;;;;5032157;28;20030;-84
2021/10/09 23:07:19;;;;;;;23.45;12.50;;;;;;;;;;5032229;28;20111;-83
2021/10/09 23:09:45;;;;;;;24.77;13.55;;;;;;;;;;5032308;28;20045;-83
2021/10/09 23:12:11;;;;;;;19.05;11.57;;;;;;;;;;5032256;28;20036;-82
2021/10/09 23:14:36;;;;;;;20.33;12.07;;;;;;;;;;5030878;28;20048;-83
2021/10/09 23:17:02;;;;;;;23.17;12.52;;;;;;;;;;5032512;28;20503;-83
2021/10/09 23:19:28;;;;;;;21.85;12.45;;;;;;;;;;5032332;28;20030;-84
2021/10/09 23:21:53;;;;;;;19.08;12.10;;;;;;;;;;5034809;28;20076;-83
2021/10/09 23:24:19;;;;;;;20.25;12.07;;;;;;;;;;5036364;28;20028;-82
2021/10/09 23:26:45;;;;;;;19.00;11.75;;;;;;;;;;5037085;28;20029;-84
2021/10/09 23:29:10;;;;;;;19.00;12.02;;;;;;;;;;5035602;28;20044;-85
2021/10/09 23:31:36;;;;;;;;;;;;;;;;;;5037429;28;20052;-84
2021/10/09 23:34:01;;;;;;;21.67;11.68;;;;;;;;;;5036533;28;20019;-84
2021/10/09 23:36:27;;;;;;;18.45;11.13;;;;;;;;;;5035232;28;20029;-83
2021/10/09 23:38:52;;;;;;;;;;;;;;;;;;5037599;28;20451;-83
2021/10/09 23:41:18;;;;;;;22.15;11.65;;;;;;;;;;5037505;28;19916;-83
2021/10/09 23:43:43;;;;;;;;;;;;;;;;;;5036145;28;20068;-85
2021/10/09 23:46:08;;;;;;;21.08;10.38;;;;;;;;;;5036246;28;19913;-83
2021/10/09 23:48:36;;;;;;;19.77;10.98;;;;;;;;;;5035700;28;20067;-82
2021/10/09 23:51:03;;;;;;;21.00;10.52;;;;;;;;;;5035432;28;20781;-81
2021/10/09 23:53:31;;;;;;;20.75;11.35;;;;;;;;;;5035430;28;20439;-84
2021/10/09 23:55:57;;;;;;;22.85;10.82;;;;;;;;;;5035945;28;20088;-86
2021/10/09 23:58:22;;;;;;;20.27;11.77;;;;;;;;;;5038274;28;20561;-86
